»·PEaware :: COBRA21 KPDX-KNUW

COBRA21 :: KPDX-KNUW

FLIGHT INFORMATION

Flight Status: Arrived
Operator: Unknown
More flights by this operator :: More flights under this callsign
Pilot: Stephen H. (22241)
Aircraft: BEECH AIRCRAFT T-6A TEXAN
(TEX2)
More flights by this aircraft type
Origin: KPDX Portland Intl
United States
Destination: KNUW Whidbey Island NAS
United States
More flights between these airports :: More routes between these airports
Route: +PTDL1 BTG V287 ARPEE V165 CVV
File this flight plan on PilotEdge
Remarks: RV to LETEC for circling to RWY 7
Altitude:
(Current/Filed)
14,000ft
Speed:
(Current/Filed)
270kts
Departed: 16-Jun-20 11:56 AM
Arrived: 16-Jun-20 12:34 PM
Distance/Time
Traveled:
166nm/0:37
Distance/Time
To Go:
Arrived

Flight Plot

Page will automatically refresh every two minutes.


Map Options




Map Legend


Flown Route
Filed Route
Departure Airport
Arrival Airport
Navaid (VOR, NDB)
Fix

Horizontal Profiles

Position Reports

Time Latitude Longitude Heading Altitude Ground
Speed
16-Jun-20 11:35 45.587613 -122.584012 209 21ft 0kts
16-Jun-20 11:36 45.587613 -122.584011 209 21ft 0kts
16-Jun-20 11:37 45.587613 -122.584011 209 21ft 0kts
16-Jun-20 11:38 45.587613 -122.584011 209 21ft 0kts
16-Jun-20 11:39 45.587613 -122.584011 209 21ft 0kts
16-Jun-20 11:40 45.587613 -122.584011 209 21ft 0kts
16-Jun-20 11:41 45.587613 -122.584011 209 21ft 0kts
16-Jun-20 11:42 45.587613 -122.584011 209 21ft 0kts
16-Jun-20 11:43 45.587613 -122.584011 209 21ft 0kts
16-Jun-20 11:44 45.588375 -122.585745 316 21ft 9kts
16-Jun-20 11:45 45.588848 -122.586312 314 21ft 7kts
16-Jun-20 11:46 45.590339 -122.588837 339 21ft 4kts
16-Jun-20 11:47 45.590363 -122.588849 338 21ft 0kts
16-Jun-20 11:48 45.590753 -122.590626 298 21ft 11kts
16-Jun-20 11:49 45.592743 -122.595718 298 23ft 14kts
16-Jun-20 11:50 45.594841 -122.600891 334 24ft 6kts
16-Jun-20 11:51 45.595618 -122.600585 28 24ft 0kts
16-Jun-20 11:52 45.595620 -122.600583 29 24ft 0kts
16-Jun-20 11:53 45.595630 -122.600575 28 24ft 0kts
16-Jun-20 11:54 45.596215 -122.599470 97 24ft 7kts
16-Jun-20 11:55 45.587060 -122.571147 92 791ft 161kts
16-Jun-20 11:56 45.606789 -122.521652 334 3424ft 191kts
16-Jun-20 11:57 45.662885 -122.552909 335 5362ft 217kts
16-Jun-20 11:58 45.714572 -122.582698 339 8733ft 199kts
16-Jun-20 11:59 45.769020 -122.597460 352 11898ft 207kts
16-Jun-20 12:00 45.828430 -122.614805 349 13917ft 246kts
16-Jun-20 12:01 45.895539 -122.628566 351 13813ft 244kts
16-Jun-20 12:02 45.961251 -122.646538 348 13883ft 238kts
16-Jun-20 12:03 46.026431 -122.664891 347 13909ft 238kts
16-Jun-20 12:04 46.098375 -122.687217 349 13943ft 287kts
16-Jun-20 12:05 46.178861 -122.706981 349 13934ft 295kts
16-Jun-20 12:06 46.259976 -122.728793 349 13806ft 298kts
16-Jun-20 12:07 46.341048 -122.750557 351 13932ft 293kts
16-Jun-20 12:08 46.421640 -122.773478 348 13842ft 298kts
16-Jun-20 12:09 46.502220 -122.800315 345 13691ft 300kts
16-Jun-20 12:10 46.582043 -122.828389 347 13960ft 292kts
16-Jun-20 12:11 46.662875 -122.854493 346 13578ft 302kts
16-Jun-20 12:12 46.743511 -122.874262 352 13900ft 296kts
16-Jun-20 12:13 46.826161 -122.879656 359 13867ft 295kts
16-Jun-20 12:14 46.907379 -122.891355 350 13886ft 299kts
16-Jun-20 12:15 46.989827 -122.899225 2 13846ft 297kts
16-Jun-20 12:16 47.071824 -122.892718 0 13998ft 293kts
16-Jun-20 12:17 47.154175 -122.882260 7 13901ft 296kts
16-Jun-20 12:18 47.234601 -122.858520 9 13874ft 301kts
16-Jun-20 12:19 47.317567 -122.853789 0 13909ft 296kts
16-Jun-20 12:20 47.400150 -122.845667 6 13715ft 299kts
16-Jun-20 12:21 47.481547 -122.832911 3 13968ft 294kts
16-Jun-20 12:22 47.563690 -122.824248 5 13987ft 297kts
16-Jun-20 12:23 47.647319 -122.811870 8 13645ft 299kts
16-Jun-20 12:24 47.734798 -122.799563 3 13858ft 296kts
16-Jun-20 12:25 47.823286 -122.787670 4 13733ft 298kts
16-Jun-20 12:26 47.910994 -122.777409 5 13864ft 297kts
16-Jun-20 12:27 47.996886 -122.764128 5 13277ft 311kts
16-Jun-20 12:28 48.086236 -122.751254 4 10952ft 327kts
16-Jun-20 12:29 48.177198 -122.739283 6 7801ft 335kts
16-Jun-20 12:30 48.264160 -122.718124 15 5373ft 261kts
16-Jun-20 12:31 48.329685 -122.685193 355 1854ft 231kts
16-Jun-20 12:32 48.369850 -122.679817 78 533ft 123kts
16-Jun-20 12:33 48.352555 -122.655970 154 32ft 27kts
16-Jun-20 12:34 48.349389 -122.653869 159 24ft 12kts

Navigation Log

Ident Type
Flight plan parsing failed, navigation log unavailable